sensor_id;sensor_type;location;lat;lon;timestamp;noise_LAeq;noise_LA_min;noise_LA_max;noise_LA01;noise_LA95
43385;Laerm;28988;48.042;7.584;2022-09-30T00:00:27;85.91;-31.03;98.87;;
43385;Laerm;28988;48.042;7.584;2022-09-30T00:02:52;86.28;-38.44;97.74;;
43385;Laerm;28988;48.042;7.584;2022-09-30T00:05:17;86.95;-38.65;100.54;;
43385;Laerm;28988;48.042;7.584;2022-09-30T00:07:42;87.80;-30.37;101.29;;
43385;Laerm;28988;48.042;7.584;2022-09-30T00:10:08;88.26;-28.92;102.69;;
43385;Laerm;28988;48.042;7.584;2022-09-30T00:12:33;89.11;-18.17;101.39;;
43385;Laerm;28988;48.042;7.584;2022-09-30T00:14:59;90.42;-54.02;102.91;;
43385;Laerm;28988;48.042;7.584;2022-09-30T00:17:24;91.34;-55.90;102.48;;
43385;Laerm;28988;48.042;7.584;2022-09-30T00:19:49;92.65;-40.84;102.83;;
43385;Laerm;28988;48.042;7.584;2022-09-30T00:22:14;93.84;-51.84;103.41;;
43385;Laerm;28988;48.042;7.584;2022-09-30T00:24:40;94.23;-36.40;103.31;;
43385;Laerm;28988;48.042;7.584;2022-09-30T00:27:05;93.71;-47.54;103.80;;
43385;Laerm;28988;48.042;7.584;2022-09-30T00:29:30;94.24;-54.04;103.20;;
43385;Laerm;28988;48.042;7.584;2022-09-30T00:31:55;95.13;-27.47;103.35;;
43385;Laerm;28988;48.042;7.584;2022-09-30T00:34:20;96.14;-21.31;104.61;;
43385;Laerm;28988;48.042;7.584;2022-09-30T00:36:50;96.67;-32.27;104.15;;
43385;Laerm;28988;48.042;7.584;2022-09-30T00:39:20;98.60;-19.07;104.66;;
43385;Laerm;28988;48.042;7.584;2022-09-30T00:41:48;99.65;-37.85;105.09;;
43385;Laerm;28988;48.042;7.584;2022-09-30T00:47:00;100.90;-26.32;105.49;;
43385;Laerm;28988;48.042;7.584;2022-09-30T00:49:25;100.46;-14.26;105.46;;
43385;Laerm;28988;48.042;7.584;2022-09-30T00:51:53;100.72;-30.45;105.35;;
43385;Laerm;28988;48.042;7.584;2022-09-30T00:54:21;101.38;-11.97;105.74;;
43385;Laerm;28988;48.042;7.584;2022-09-30T00:56:51;101.53;-15.41;106.10;;
43385;Laerm;28988;48.042;7.584;2022-09-30T00:59:18;101.52;-51.28;105.80;;
43385;Laerm;28988;48.042;7.584;2022-09-30T01:01:45;101.56;-12.87;106.07;;
43385;Laerm;28988;48.042;7.584;2022-09-30T01:04:11;101.38;-36.87;105.80;;
43385;Laerm;28988;48.042;7.584;2022-09-30T01:06:38;101.53;-25.29;105.84;;
43385;Laerm;28988;48.042;7.584;2022-09-30T01:09:04;101.16;-19.67;105.75;;
43385;Laerm;28988;48.042;7.584;2022-09-30T01:11:29;100.57;-28.92;105.83;;
43385;Laerm;28988;48.042;7.584;2022-09-30T01:13:56;100.37;-28.77;106.86;;
43385;Laerm;28988;48.042;7.584;2022-09-30T01:32:16;100.36;-21.19;105.55;;
43385;Laerm;28988;48.042;7.584;2022-09-30T01:34:48;100.58;-37.35;105.77;;
43385;Laerm;28988;48.042;7.584;2022-09-30T01:39:54;100.02;-43.02;105.65;;
43385;Laerm;28988;48.042;7.584;2022-09-30T01:42:23;101.28;-11.20;105.59;;
43385;Laerm;28988;48.042;7.584;2022-09-30T01:47:22;101.21;-42.69;105.40;;
43385;Laerm;28988;48.042;7.584;2022-09-30T01:49:55;100.61;-15.75;104.97;;
43385;Laerm;28988;48.042;7.584;2022-09-30T01:52:25;100.04;-27.97;105.02;;
43385;Laerm;28988;48.042;7.584;2022-09-30T01:57:41;98.99;-27.30;104.44;;
43385;Laerm;28988;48.042;7.584;2022-09-30T02:00:09;98.76;-44.60;104.72;;
43385;Laerm;28988;48.042;7.584;2022-09-30T02:02:45;97.98;-37.43;104.06;;
43385;Laerm;28988;48.042;7.584;2022-09-30T02:05:15;97.42;-36.29;104.06;;
43385;Laerm;28988;48.042;7.584;2022-09-30T02:07:44;97.39;-40.80;103.95;;
43385;Laerm;28988;48.042;7.584;2022-09-30T02:10:13;96.67;-60.58;102.99;;
43385;Laerm;28988;48.042;7.584;2022-09-30T02:12:41;96.83;-18.48;103.20;;
43385;Laerm;28988;48.042;7.584;2022-09-30T02:15:11;96.70;-27.65;102.55;;
43385;Laerm;28988;48.042;7.584;2022-09-30T02:17:40;96.83;-35.00;102.79;;
43385;Laerm;28988;48.042;7.584;2022-09-30T02:20:17;96.64;-18.82;103.67;;
43385;Laerm;28988;48.042;7.584;2022-09-30T02:22:45;96.00;-31.58;102.47;;
43385;Laerm;28988;48.042;7.584;2022-09-30T02:25:20;95.91;-23.67;102.67;;
43385;Laerm;28988;48.042;7.584;2022-09-30T02:27:53;95.61;-17.20;102.09;;
43385;Laerm;28988;48.042;7.584;2022-09-30T02:30:20;95.08;-17.79;101.78;;
43385;Laerm;28988;48.042;7.584;2022-09-30T02:32:54;95.02;-37.89;102.03;;
43385;Laerm;28988;48.042;7.584;2022-09-30T02:35:31;95.39;-16.65;101.80;;
43385;Laerm;28988;48.042;7.584;2022-09-30T02:37:59;95.50;-26.61;102.17;;
43385;Laerm;28988;48.042;7.584;2022-09-30T02:40:33;95.74;-14.86;102.10;;
43385;Laerm;28988;48.042;7.584;2022-09-30T02:43:01;95.82;-45.54;102.18;;
43385;Laerm;28988;48.042;7.584;2022-09-30T02:45:27;95.43;-17.81;102.63;;
43385;Laerm;28988;48.042;7.584;2022-09-30T02:50:48;95.17;-55.07;101.86;;
43385;Laerm;28988;48.042;7.584;2022-09-30T02:53:21;94.75;-28.06;101.88;;
43385;Laerm;28988;48.042;7.584;2022-09-30T02:56:07;94.27;-25.45;101.42;;
43385;Laerm;28988;48.042;7.584;2022-09-30T02:58:35;93.47;-20.43;101.39;;
43385;Laerm;28988;48.042;7.584;2022-09-30T03:01:03;92.88;-34.65;100.97;;
43385;Laerm;28988;48.042;7.584;2022-09-30T03:03:31;93.40;-26.75;101.16;;
43385;Laerm;28988;48.042;7.584;2022-09-30T03:05:57;93.76;-36.99;101.35;;
43385;Laerm;28988;48.042;7.584;2022-09-30T03:08:23;93.77;-21.60;101.69;;
43385;Laerm;28988;48.042;7.584;2022-09-30T03:10:49;93.89;-26.17;101.46;;
43385;Laerm;28988;48.042;7.584;2022-09-30T03:18:16;93.42;-42.44;101.51;;
43385;Laerm;28988;48.042;7.584;2022-09-30T03:23:37;93.82;-30.19;101.28;;
43385;Laerm;28988;48.042;7.584;2022-09-30T03:28:45;93.61;-28.24;101.63;;
43385;Laerm;28988;48.042;7.584;2022-09-30T03:39:24;92.57;-42.70;101.19;;
43385;Laerm;28988;48.042;7.584;2022-09-30T03:44:31;93.27;-21.66;101.19;;
43385;Laerm;28988;48.042;7.584;2022-09-30T03:47:08;93.58;-35.58;101.30;;
43385;Laerm;28988;48.042;7.584;2022-09-30T03:49:36;93.76;-22.20;101.36;;
43385;Laerm;28988;48.042;7.584;2022-09-30T03:52:04;93.16;-37.75;101.07;;
43385;Laerm;28988;48.042;7.584;2022-09-30T03:54:30;92.89;-35.73;101.36;;
43385;Laerm;28988;48.042;7.584;2022-09-30T03:56:55;92.63;-53.16;101.63;;
43385;Laerm;28988;48.042;7.584;2022-09-30T03:59:22;92.94;-38.22;101.07;;
43385;Laerm;28988;48.042;7.584;2022-09-30T04:01:49;92.95;-19.37;101.19;;
43385;Laerm;28988;48.042;7.584;2022-09-30T04:04:14;93.08;-28.95;101.44;;
43385;Laerm;28988;48.042;7.584;2022-09-30T04:06:39;93.14;-20.94;101.35;;
43385;Laerm;28988;48.042;7.584;2022-09-30T04:09:05;93.09;-24.01;101.34;;
43385;Laerm;28988;48.042;7.584;2022-09-30T04:11:30;93.05;-28.33;101.37;;
43385;Laerm;28988;48.042;7.584;2022-09-30T04:13:55;93.00;-9.10;101.15;;
43385;Laerm;28988;48.042;7.584;2022-09-30T04:16:20;92.77;-32.16;101.13;;
43385;Laerm;28988;48.042;7.584;2022-09-30T04:18:47;92.59;-33.26;101.09;;
43385;Laerm;28988;48.042;7.584;2022-09-30T04:21:12;92.16;-58.65;100.96;;
43385;Laerm;28988;48.042;7.584;2022-09-30T04:23:38;91.75;-26.06;100.77;;
43385;Laerm;28988;48.042;7.584;2022-09-30T04:26:05;91.53;-14.34;100.65;;
43385;Laerm;28988;48.042;7.584;2022-09-30T04:28:30;91.31;-37.80;100.47;;
43385;Laerm;28988;48.042;7.584;2022-09-30T04:30:59;90.97;-72.04;100.24;;
43385;Laerm;28988;48.042;7.584;2022-09-30T04:33:25;90.86;-19.19;100.12;;
43385;Laerm;28988;48.042;7.584;2022-09-30T04:35:54;90.69;-33.41;99.95;;
43385;Laerm;28988;48.042;7.584;2022-09-30T04:38:20;90.58;-24.53;99.58;;
43385;Laerm;28988;48.042;7.584;2022-09-30T04:40:45;90.51;-33.74;99.74;;
43385;Laerm;28988;48.042;7.584;2022-09-30T04:43:10;90.48;-32.43;99.47;;
43385;Laerm;28988;48.042;7.584;2022-09-30T04:45:35;90.47;-27.17;99.63;;
43385;Laerm;28988;48.042;7.584;2022-09-30T04:48:01;90.45;-24.49;99.66;;
43385;Laerm;28988;48.042;7.584;2022-09-30T04:50:26;90.47;-28.07;99.38;;
43385;Laerm;28988;48.042;7.584;2022-09-30T04:52:51;90.48;-26.62;99.28;;
43385;Laerm;28988;48.042;7.584;2022-09-30T04:55:16;90.78;-28.99;100.05;;
43385;Laerm;28988;48.042;7.584;2022-09-30T04:57:45;90.75;-24.28;100.08;;
43385;Laerm;28988;48.042;7.584;2022-09-30T05:00:10;90.77;-32.82;99.83;;
43385;Laerm;28988;48.042;7.584;2022-09-30T05:02:35;90.83;-23.90;99.99;;
43385;Laerm;28988;48.042;7.584;2022-09-30T05:05:00;90.99;-35.58;100.10;;
43385;Laerm;28988;48.042;7.584;2022-09-30T05:07:27;91.15;-36.25;100.25;;
43385;Laerm;28988;48.042;7.584;2022-09-30T05:09:52;91.26;-36.10;100.35;;
43385;Laerm;28988;48.042;7.584;2022-09-30T05:12:17;91.03;-33.28;100.17;;
43385;Laerm;28988;48.042;7.584;2022-09-30T05:14:42;90.73;-42.78;100.03;;
43385;Laerm;28988;48.042;7.584;2022-09-30T05:17:08;90.66;-26.91;99.89;;
43385;Laerm;28988;48.042;7.584;2022-09-30T05:19:33;90.57;-27.73;99.65;;
43385;Laerm;28988;48.042;7.584;2022-09-30T05:21:58;90.52;-50.36;99.65;;
43385;Laerm;28988;48.042;7.584;2022-09-30T05:24:23;90.43;-45.57;99.56;;
43385;Laerm;28988;48.042;7.584;2022-09-30T05:26:49;90.34;-23.01;99.39;;
43385;Laerm;28988;48.042;7.584;2022-09-30T05:29:14;90.32;-28.67;99.14;;
43385;Laerm;28988;48.042;7.584;2022-09-30T05:31:39;90.28;-26.62;99.42;;
43385;Laerm;28988;48.042;7.584;2022-09-30T05:34:06;90.25;-22.69;99.26;;
43385;Laerm;28988;48.042;7.584;2022-09-30T05:36:31;90.24;-52.46;99.29;;
43385;Laerm;28988;48.042;7.584;2022-09-30T05:38:56;90.24;-37.32;99.21;;
43385;Laerm;28988;48.042;7.584;2022-09-30T05:41:21;90.21;-20.23;99.06;;
43385;Laerm;28988;48.042;7.584;2022-09-30T05:43:48;90.20;-33.74;99.16;;
43385;Laerm;28988;48.042;7.584;2022-09-30T05:46:14;90.18;-31.57;99.02;;
43385;Laerm;28988;48.042;7.584;2022-09-30T05:48:39;90.18;-25.83;99.14;;
43385;Laerm;28988;48.042;7.584;2022-09-30T05:51:04;90.18;-20.23;99.31;;
43385;Laerm;28988;48.042;7.584;2022-09-30T05:53:30;90.21;-30.53;99.03;;
43385;Laerm;28988;48.042;7.584;2022-09-30T05:55:55;90.24;-64.79;99.39;;
43385;Laerm;28988;48.042;7.584;2022-09-30T05:58:21;90.26;-24.87;99.26;;
43385;Laerm;28988;48.042;7.584;2022-09-30T06:00:47;90.22;-26.68;99.28;;
43385;Laerm;28988;48.042;7.584;2022-09-30T06:03:13;90.24;-51.36;99.22;;
43385;Laerm;28988;48.042;7.584;2022-09-30T06:05:38;90.26;-24.64;99.10;;
43385;Laerm;28988;48.042;7.584;2022-09-30T06:08:03;90.25;-42.91;99.38;;
43385;Laerm;28988;48.042;7.584;2022-09-30T06:10:31;90.28;-23.53;99.37;;
43385;Laerm;28988;48.042;7.584;2022-09-30T06:12:56;90.31;-48.29;99.64;;
43385;Laerm;28988;48.042;7.584;2022-09-30T06:15:23;90.36;-20.51;99.62;;
43385;Laerm;28988;48.042;7.584;2022-09-30T06:17:52;90.39;-25.38;99.14;;
43385;Laerm;28988;48.042;7.584;2022-09-30T06:20:17;90.36;-36.18;99.43;;
43385;Laerm;28988;48.042;7.584;2022-09-30T06:22:42;90.33;-26.14;99.46;;
43385;Laerm;28988;48.042;7.584;2022-09-30T06:25:08;90.34;-24.07;99.35;;
43385;Laerm;28988;48.042;7.584;2022-09-30T06:27:33;90.35;-58.67;99.49;;
43385;Laerm;28988;48.042;7.584;2022-09-30T06:29:58;90.35;-28.61;99.31;;
43385;Laerm;28988;48.042;7.584;2022-09-30T06:32:24;90.30;-44.81;99.18;;
43385;Laerm;28988;48.042;7.584;2022-09-30T06:34:50;90.36;-24.74;99.38;;
43385;Laerm;28988;48.042;7.584;2022-09-30T06:37:15;90.41;-43.24;99.43;;
43385;Laerm;28988;48.042;7.584;2022-09-30T06:39:42;90.46;-36.92;99.55;;
43385;Laerm;28988;48.042;7.584;2022-09-30T06:42:08;90.51;-44.00;99.60;;
43385;Laerm;28988;48.042;7.584;2022-09-30T06:44:34;90.54;-20.26;99.50;;
43385;Laerm;28988;48.042;7.584;2022-09-30T06:46:59;90.52;-28.46;99.74;;
43385;Laerm;28988;48.042;7.584;2022-09-30T06:49:24;90.56;-25.35;99.74;;
43385;Laerm;28988;48.042;7.584;2022-09-30T06:51:50;90.59;-28.97;99.66;;
43385;Laerm;28988;48.042;7.584;2022-09-30T06:54:15;90.66;-15.33;100.05;;
43385;Laerm;28988;48.042;7.584;2022-09-30T06:56:41;90.77;-35.60;100.02;;
43385;Laerm;28988;48.042;7.584;2022-09-30T06:59:07;91.00;-20.48;100.11;;
43385;Laerm;28988;48.042;7.584;2022-09-30T07:01:33;90.99;-20.63;100.13;;
43385;Laerm;28988;48.042;7.584;2022-09-30T07:03:58;90.98;-57.55;100.41;;
43385;Laerm;28988;48.042;7.584;2022-09-30T07:06:24;91.07;-27.38;100.19;;
43385;Laerm;28988;48.042;7.584;2022-09-30T07:08:52;91.25;-20.84;100.23;;
43385;Laerm;28988;48.042;7.584;2022-09-30T07:11:18;91.55;-27.50;100.46;;
43385;Laerm;28988;48.042;7.584;2022-09-30T07:13:43;91.62;-17.77;100.64;;
43385;Laerm;28988;48.042;7.584;2022-09-30T07:16:10;91.81;-34.49;100.44;;
43385;Laerm;28988;48.042;7.584;2022-09-30T07:18:36;92.23;-17.79;100.84;;
43385;Laerm;28988;48.042;7.584;2022-09-30T07:21:01;92.73;-34.73;101.09;;
43385;Laerm;28988;48.042;7.584;2022-09-30T07:23:26;93.81;-36.84;101.52;;
43385;Laerm;28988;48.042;7.584;2022-09-30T07:25:52;95.10;-34.55;101.73;;
43385;Laerm;28988;48.042;7.584;2022-09-30T07:28:20;96.27;-31.44;102.33;;
43385;Laerm;28988;48.042;7.584;2022-09-30T07:30:45;96.89;-32.03;102.96;;
43385;Laerm;28988;48.042;7.584;2022-09-30T07:33:11;96.32;-25.95;102.65;;
43385;Laerm;28988;48.042;7.584;2022-09-30T07:35:40;96.47;-25.26;103.70;;
43385;Laerm;28988;48.042;7.584;2022-09-30T07:38:08;97.59;-14.62;103.57;;
43385;Laerm;28988;48.042;7.584;2022-09-30T07:40:34;99.02;-23.66;104.58;;
43385;Laerm;28988;48.042;7.584;2022-09-30T07:42:59;100.24;-25.80;104.70;;
43385;Laerm;28988;48.042;7.584;2022-09-30T07:45:25;101.06;-22.14;105.08;;
43385;Laerm;28988;48.042;7.584;2022-09-30T07:47:51;101.13;-29.35;105.06;;
43385;Laerm;28988;48.042;7.584;2022-09-30T07:50:16;101.13;-27.12;105.31;;
43385;Laerm;28988;48.042;7.584;2022-09-30T07:52:41;101.13;-33.58;105.23;;
43385;Laerm;28988;48.042;7.584;2022-09-30T07:55:06;101.16;-28.83;104.97;;
43385;Laerm;28988;48.042;7.584;2022-09-30T07:57:32;101.14;-17.72;105.40;;
43385;Laerm;28988;48.042;7.584;2022-09-30T07:59:57;100.93;-13.91;104.97;;
43385;Laerm;28988;48.042;7.584;2022-09-30T08:02:22;100.56;-20.62;105.06;;
43385;Laerm;28988;48.042;7.584;2022-09-30T08:04:48;100.72;-22.66;105.03;;
43385;Laerm;28988;48.042;7.584;2022-09-30T08:07:14;100.74;-26.15;104.89;;
43385;Laerm;28988;48.042;7.584;2022-09-30T08:09:40;101.06;-25.29;105.01;;
43385;Laerm;28988;48.042;7.584;2022-09-30T08:12:05;101.11;-17.12;105.84;;
43385;Laerm;28988;48.042;7.584;2022-09-30T08:14:30;100.90;-29.48;105.37;;
43385;Laerm;28988;48.042;7.584;2022-09-30T08:16:55;100.58;-24.44;105.56;;
43385;Laerm;28988;48.042;7.584;2022-09-30T08:19:22;100.11;-28.97;105.63;;
43385;Laerm;28988;48.042;7.584;2022-09-30T08:21:48;99.85;-25.80;105.55;;
43385;Laerm;28988;48.042;7.584;2022-09-30T08:24:14;98.76;-23.08;105.61;;
43385;Laerm;28988;48.042;7.584;2022-09-30T08:26:39;97.59;-38.34;105.49;;
43385;Laerm;28988;48.042;7.584;2022-09-30T08:29:05;97.20;-23.45;105.64;;
43385;Laerm;28988;48.042;7.584;2022-09-30T08:31:30;96.26;-31.01;104.48;;
43385;Laerm;28988;48.042;7.584;2022-09-30T08:33:57;94.66;-18.28;104.80;;
43385;Laerm;28988;48.042;7.584;2022-09-30T08:36:23;94.49;-22.34;104.06;;
43385;Laerm;28988;48.042;7.584;2022-09-30T08:38:49;93.91;-26.94;104.80;;
43385;Laerm;28988;48.042;7.584;2022-09-30T08:43:53;92.53;-25.25;103.28;;
43385;Laerm;28988;48.042;7.584;2022-09-30T08:48:59;91.34;-41.37;103.45;;
43385;Laerm;28988;48.042;7.584;2022-09-30T08:51:33;90.74;-35.73;102.74;;
43385;Laerm;28988;48.042;7.584;2022-09-30T08:54:01;90.27;-42.48;102.66;;
43385;Laerm;28988;48.042;7.584;2022-09-30T08:56:29;89.50;-38.38;102.01;;
43385;Laerm;28988;48.042;7.584;2022-09-30T08:58:57;89.50;-41.37;102.01;;
43385;Laerm;28988;48.042;7.584;2022-09-30T09:01:30;89.62;-37.75;102.87;;
43385;Laerm;28988;48.042;7.584;2022-09-30T09:03:57;89.25;-51.21;102.84;;
43385;Laerm;28988;48.042;7.584;2022-09-30T09:06:29;88.85;-35.90;101.21;;
43385;Laerm;28988;48.042;7.584;2022-09-30T09:18:51;86.30;-37.16;97.88;;
43385;Laerm;28988;48.042;7.584;2022-09-30T09:24:05;86.52;-38.42;99.56;;
43385;Laerm;28988;48.042;7.584;2022-09-30T09:26:36;86.45;-37.16;97.93;;
43385;Laerm;28988;48.042;7.584;2022-09-30T09:29:14;86.41;-39.32;98.78;;
43385;Laerm;28988;48.042;7.584;2022-09-30T09:31:44;86.26;-46.30;99.91;;
43385;Laerm;28988;48.042;7.584;2022-09-30T09:34:10;86.23;-53.89;100.08;;
43385;Laerm;28988;48.042;7.584;2022-09-30T09:47:04;84.89;-57.68;97.05;;
43385;Laerm;28988;48.042;7.584;2022-09-30T09:51:59;84.68;-39.78;96.84;;
43385;Laerm;28988;48.042;7.584;2022-09-30T09:54:29;84.57;-32.40;96.62;;
43385;Laerm;28988;48.042;7.584;2022-09-30T09:56:55;84.49;-28.29;96.46;;
43385;Laerm;28988;48.042;7.584;2022-09-30T09:59:28;84.41;-47.64;96.41;;
43385;Laerm;28988;48.042;7.584;2022-09-30T10:01:55;84.38;-39.78;95.59;;
43385;Laerm;28988;48.042;7.584;2022-09-30T10:04:24;84.37;-57.68;95.63;;
43385;Laerm;28988;48.042;7.584;2022-09-30T10:06:57;84.38;-23.73;96.43;;
43385;Laerm;28988;48.042;7.584;2022-09-30T10:14:32;84.31;-57.68;95.98;;
43385;Laerm;28988;48.042;7.584;2022-09-30T10:16:58;84.31;-30.93;95.32;;
43385;Laerm;28988;48.042;7.584;2022-09-30T10:19:25;84.28;-33.10;95.06;;
43385;Laerm;28988;48.042;7.584;2022-09-30T10:22:34;84.30;-27.61;95.11;;
43385;Laerm;28988;48.042;7.584;2022-09-30T10:24:40;84.26;-57.68;95.10;;
43385;Laerm;28988;48.042;7.584;2022-09-30T10:29:50;84.24;-23.73;94.43;;
43385;Laerm;28988;48.042;7.584;2022-09-30T10:32:15;84.24;-31.18;94.55;;
43385;Laerm;28988;48.042;7.584;2022-09-30T10:34:41;84.22;-57.68;94.34;;
43385;Laerm;28988;48.042;7.584;2022-09-30T10:37:09;84.20;-57.68;94.56;;
43385;Laerm;28988;48.042;7.584;2022-09-30T10:39:36;84.18;-57.68;94.15;;
43385;Laerm;28988;48.042;7.584;2022-09-30T10:42:07;84.18;-28.29;94.14;;
43385;Laerm;28988;48.042;7.584;2022-09-30T10:44:52;84.17;-57.68;93.67;;
43385;Laerm;28988;48.042;7.584;2022-09-30T10:47:19;84.17;-57.68;93.97;;
43385;Laerm;28988;48.042;7.584;2022-09-30T10:49:55;84.17;-57.68;93.78;;
43385;Laerm;28988;48.042;7.584;2022-09-30T10:52:27;84.16;-57.68;93.52;;
43385;Laerm;28988;48.042;7.584;2022-09-30T10:54:55;84.17;-57.68;93.64;;
43385;Laerm;28988;48.042;7.584;2022-09-30T10:57:28;84.17;-57.68;93.36;;
43385;Laerm;28988;48.042;7.584;2022-09-30T10:59:59;84.16;-57.68;93.84;;
43385;Laerm;28988;48.042;7.584;2022-09-30T11:02:35;84.15;-57.68;93.52;;
43385;Laerm;28988;48.042;7.584;2022-09-30T11:05:18;84.15;-57.68;93.40;;
43385;Laerm;28988;48.042;7.584;2022-09-30T11:12:40;84.16;-28.29;93.20;;
43385;Laerm;28988;48.042;7.584;2022-09-30T11:15:11;84.15;-33.10;93.66;;
43385;Laerm;28988;48.042;7.584;2022-09-30T11:17:52;84.16;-33.10;93.36;;
43385;Laerm;28988;48.042;7.584;2022-09-30T11:25:12;84.16;-34.16;93.49;;
43385;Laerm;28988;48.042;7.584;2022-09-30T11:27:54;84.16;-57.68;93.47;;
43385;Laerm;28988;48.042;7.584;2022-09-30T11:30:44;84.15;-57.68;93.86;;
43385;Laerm;28988;48.042;7.584;2022-09-30T11:33:17;84.15;-57.68;94.09;;
43385;Laerm;28988;48.042;7.584;2022-09-30T11:38:41;84.15;-57.68;93.16;;
43385;Laerm;28988;48.042;7.584;2022-09-30T11:41:09;84.14;-57.68;93.13;;
43385;Laerm;28988;48.042;7.584;2022-09-30T11:46:24;84.14;-57.68;93.53;;
43385;Laerm;28988;48.042;7.584;2022-09-30T11:59:29;84.14;-34.16;93.17;;
43385;Laerm;28988;48.042;7.584;2022-09-30T12:01:52;84.14;-34.16;93.37;;
43385;Laerm;28988;48.042;7.584;2022-09-30T12:04:26;84.14;-34.16;92.94;;
43385;Laerm;28988;48.042;7.584;2022-09-30T12:07:06;84.14;-57.68;93.61;;
43385;Laerm;28988;48.042;7.584;2022-09-30T12:09:38;84.14;-57.68;93.45;;
43385;Laerm;28988;48.042;7.584;2022-09-30T12:12:11;84.15;-33.10;93.50;;
43385;Laerm;28988;48.042;7.584;2022-09-30T12:14:47;84.14;-28.29;93.08;;
43385;Laerm;28988;48.042;7.584;2022-09-30T12:17:59;84.14;-57.68;93.07;;
43385;Laerm;28988;48.042;7.584;2022-09-30T12:20:04;84.14;-33.10;93.44;;
43385;Laerm;28988;48.042;7.584;2022-09-30T12:22:36;84.14;-64.84;93.56;;
43385;Laerm;28988;48.042;7.584;2022-09-30T12:25:12;84.15;-57.68;93.08;;
43385;Laerm;28988;48.042;7.584;2022-09-30T12:27:40;84.14;-33.10;92.94;;
43385;Laerm;28988;48.042;7.584;2022-09-30T12:30:12;84.15;-57.68;93.04;;
43385;Laerm;28988;48.042;7.584;2022-09-30T12:37:50;84.14;-57.68;93.26;;
43385;Laerm;28988;48.042;7.584;2022-09-30T12:40:25;84.14;-26.87;93.13;;
43385;Laerm;28988;48.042;7.584;2022-09-30T12:45:31;84.15;-57.68;93.40;;
43385;Laerm;28988;48.042;7.584;2022-09-30T12:48:02;84.14;-57.68;93.40;;
43385;Laerm;28988;48.042;7.584;2022-09-30T12:50:32;84.14;-31.18;93.27;;
43385;Laerm;28988;48.042;7.584;2022-09-30T12:53:01;84.14;-45.84;93.13;;
43385;Laerm;28988;48.042;7.584;2022-09-30T12:55:37;84.14;-57.68;93.45;;
43385;Laerm;28988;48.042;7.584;2022-09-30T12:58:03;84.15;-57.68;93.31;;
43385;Laerm;28988;48.042;7.584;2022-09-30T13:00:30;84.15;-23.58;93.33;;
43385;Laerm;28988;48.042;7.584;2022-09-30T13:03:02;84.14;-23.73;93.40;;
43385;Laerm;28988;48.042;7.584;2022-09-30T13:23:22;84.14;-57.68;93.18;;
43385;Laerm;28988;48.042;7.584;2022-09-30T13:25:57;84.14;-57.68;93.72;;
43385;Laerm;28988;48.042;7.584;2022-09-30T13:30:48;84.15;-57.68;93.70;;
43385;Laerm;28988;48.042;7.584;2022-09-30T13:33:27;84.15;-23.73;93.35;;
43385;Laerm;28988;48.042;7.584;2022-09-30T13:35:55;84.14;-33.10;93.59;;
43385;Laerm;28988;48.042;7.584;2022-09-30T13:38:21;84.14;-33.10;93.45;;
43385;Laerm;28988;48.042;7.584;2022-09-30T13:41:02;84.15;-57.68;93.72;;
43385;Laerm;28988;48.042;7.584;2022-09-30T13:45:54;84.15;-23.73;93.49;;
43385;Laerm;28988;48.042;7.584;2022-09-30T13:48:31;84.15;-33.10;93.45;;
43385;Laerm;28988;48.042;7.584;2022-09-30T13:50:57;84.14;-23.73;93.40;;
43385;Laerm;28988;48.042;7.584;2022-09-30T13:53:40;84.16;-40.41;93.27;;
43385;Laerm;28988;48.042;7.584;2022-09-30T13:56:15;84.15;-33.10;93.19;;
43385;Laerm;28988;48.042;7.584;2022-09-30T14:09:24;84.17;-57.68;94.00;;
43385;Laerm;28988;48.042;7.584;2022-09-30T14:12:04;84.17;-23.73;93.53;;
43385;Laerm;28988;48.042;7.584;2022-09-30T14:19:54;84.20;-33.10;94.74;;
43385;Laerm;28988;48.042;7.584;2022-09-30T14:22:24;84.19;-22.86;94.26;;
43385;Laerm;28988;48.042;7.584;2022-09-30T14:24:51;84.23;-23.73;94.61;;
43385;Laerm;28988;48.042;7.584;2022-09-30T14:32:27;84.21;-57.68;93.86;;
43385;Laerm;28988;48.042;7.584;2022-09-30T14:34:53;84.21;-57.68;93.93;;
43385;Laerm;28988;48.042;7.584;2022-09-30T14:39:53;84.18;-57.68;93.82;;
43385;Laerm;28988;48.042;7.584;2022-09-30T14:42:40;84.17;-57.68;93.53;;
43385;Laerm;28988;48.042;7.584;2022-09-30T14:45:05;84.17;-57.68;94.01;;
43385;Laerm;28988;48.042;7.584;2022-09-30T14:47:31;84.17;-34.16;93.53;;
43385;Laerm;28988;48.042;7.584;2022-09-30T14:49:58;84.17;-33.10;93.49;;
43385;Laerm;28988;48.042;7.584;2022-09-30T14:57:55;84.16;-34.16;94.66;;
43385;Laerm;28988;48.042;7.584;2022-09-30T15:00:26;84.17;-57.68;93.78;;
43385;Laerm;28988;48.042;7.584;2022-09-30T15:02:53;84.18;-57.68;93.82;;
43385;Laerm;28988;48.042;7.584;2022-09-30T15:05:18;84.18;-23.73;93.86;;
43385;Laerm;28988;48.042;7.584;2022-09-30T15:07:44;84.18;-57.68;94.51;;
43385;Laerm;28988;48.042;7.584;2022-09-30T15:10:15;84.19;-57.68;93.98;;
43385;Laerm;28988;48.042;7.584;2022-09-30T15:12:41;84.19;-57.68;93.85;;
43385;Laerm;28988;48.042;7.584;2022-09-30T15:15:52;84.18;-33.10;94.03;;
43385;Laerm;28988;48.042;7.584;2022-09-30T15:17:52;84.19;-28.29;93.98;;
43385;Laerm;28988;48.042;7.584;2022-09-30T15:22:47;84.21;-34.16;94.58;;
43385;Laerm;28988;48.042;7.584;2022-09-30T15:25:13;84.21;-57.68;94.57;;
43385;Laerm;28988;48.042;7.584;2022-09-30T15:27:40;84.21;-38.04;94.40;;
43385;Laerm;28988;48.042;7.584;2022-09-30T15:32:37;84.22;-23.73;94.62;;
43385;Laerm;28988;48.042;7.584;2022-09-30T15:35:06;84.22;-57.68;94.27;;
43385;Laerm;28988;48.042;7.584;2022-09-30T15:37:35;84.22;-57.68;94.32;;
43385;Laerm;28988;48.042;7.584;2022-09-30T15:40:00;84.22;-33.10;94.21;;
43385;Laerm;28988;48.042;7.584;2022-09-30T15:47:54;84.27;-28.29;95.31;;
43385;Laerm;28988;48.042;7.584;2022-09-30T15:50:36;84.27;-21.61;95.07;;
43385;Laerm;28988;48.042;7.584;2022-09-30T15:53:02;84.26;-23.73;94.95;;
43385;Laerm;28988;48.042;7.584;2022-09-30T15:55:35;84.27;-34.16;94.82;;
43385;Laerm;28988;48.042;7.584;2022-09-30T15:58:01;84.28;-28.29;95.70;;
43385;Laerm;28988;48.042;7.584;2022-09-30T16:00:38;84.30;-23.73;95.37;;
43385;Laerm;28988;48.042;7.584;2022-09-30T16:03:27;84.29;-23.73;95.15;;
43385;Laerm;28988;48.042;7.584;2022-09-30T16:05:51;84.28;-57.68;95.41;;
43385;Laerm;28988;48.042;7.584;2022-09-30T16:08:26;84.32;-23.73;94.89;;
43385;Laerm;28988;48.042;7.584;2022-09-30T16:10:53;84.29;-28.29;94.76;;
43385;Laerm;28988;48.042;7.584;2022-09-30T16:13:24;84.34;-34.74;95.84;;
43385;Laerm;28988;48.042;7.584;2022-09-30T16:15:51;84.33;-31.18;95.66;;
43385;Laerm;28988;48.042;7.584;2022-09-30T16:18:19;84.32;-23.73;95.71;;
43385;Laerm;28988;48.042;7.584;2022-09-30T16:20:55;84.34;-23.73;95.45;;
43385;Laerm;28988;48.042;7.584;2022-09-30T16:23:28;84.33;-20.54;95.47;;
43385;Laerm;28988;48.042;7.584;2022-09-30T16:28:38;84.34;-67.08;96.34;;
43385;Laerm;28988;48.042;7.584;2022-09-30T16:31:03;84.37;-26.24;96.09;;
43385;Laerm;28988;48.042;7.584;2022-09-30T16:33:30;84.36;-36.01;95.79;;
43385;Laerm;28988;48.042;7.584;2022-09-30T16:35:55;84.40;-28.29;95.26;;
43385;Laerm;28988;48.042;7.584;2022-09-30T16:38:22;84.37;-24.36;95.27;;
43385;Laerm;28988;48.042;7.584;2022-09-30T16:40:47;84.38;-39.78;95.84;;